sensor_id;sensor_type;location;lat;lon;timestamp;P1;durP1;ratioP1;P2;durP2;ratioP2
70576;SDS011;58138;43.138;24.702;2023-02-11T00:00:58;29.17;;;13.20;;
70576;SDS011;58138;43.138;24.702;2023-02-11T00:03:24;19.80;;;8.93;;
70576;SDS011;58138;43.138;24.702;2023-02-11T00:05:57;23.95;;;10.27;;
70576;SDS011;58138;43.138;24.702;2023-02-11T00:08:27;15.52;;;7.82;;
70576;SDS011;58138;43.138;24.702;2023-02-11T00:10:56;23.70;;;7.78;;
70576;SDS011;58138;43.138;24.702;2023-02-11T00:13:23;23.83;;;9.95;;
70576;SDS011;58138;43.138;24.702;2023-02-11T00:15:49;30.45;;;10.73;;
70576;SDS011;58138;43.138;24.702;2023-02-11T00:18:18;25.95;;;11.63;;
70576;SDS011;58138;43.138;24.702;2023-02-11T00:20:47;29.67;;;11.38;;
70576;SDS011;58138;43.138;24.702;2023-02-11T00:23:13;20.98;;;8.93;;
70576;SDS011;58138;43.138;24.702;2023-02-11T00:25:40;25.17;;;9.30;;
70576;SDS011;58138;43.138;24.702;2023-02-11T00:28:07;18.30;;;7.35;;
70576;SDS011;58138;43.138;24.702;2023-02-11T00:30:33;18.52;;;9.43;;
70576;SDS011;58138;43.138;24.702;2023-02-11T00:33:01;22.83;;;9.20;;
70576;SDS011;58138;43.138;24.702;2023-02-11T00:35:28;25.27;;;12.07;;
70576;SDS011;58138;43.138;24.702;2023-02-11T00:37:53;34.50;;;15.98;;
70576;SDS011;58138;43.138;24.702;2023-02-11T00:40:21;18.20;;;6.93;;
70576;SDS011;58138;43.138;24.702;2023-02-11T00:42:47;24.15;;;8.85;;
70576;SDS011;58138;43.138;24.702;2023-02-11T00:45:13;20.30;;;8.77;;
70576;SDS011;58138;43.138;24.702;2023-02-11T00:47:44;30.02;;;12.00;;
70576;SDS011;58138;43.138;24.702;2023-02-11T00:50:11;21.20;;;9.00;;
70576;SDS011;58138;43.138;24.702;2023-02-11T00:52:36;29.92;;;13.88;;
70576;SDS011;58138;43.138;24.702;2023-02-11T00:55:02;22.77;;;10.13;;
70576;SDS011;58138;43.138;24.702;2023-02-11T00:57:31;27.33;;;9.55;;
70576;SDS011;58138;43.138;24.702;2023-02-11T00:59:57;26.52;;;9.45;;
70576;SDS011;58138;43.138;24.702;2023-02-11T01:02:26;27.60;;;12.15;;
70576;SDS011;58138;43.138;24.702;2023-02-11T01:04:53;24.10;;;9.65;;
70576;SDS011;58138;43.138;24.702;2023-02-11T01:07:19;35.55;;;15.43;;
70576;SDS011;58138;43.138;24.702;2023-02-11T01:09:45;17.20;;;8.80;;
70576;SDS011;58138;43.138;24.702;2023-02-11T01:12:11;20.75;;;8.88;;
70576;SDS011;58138;43.138;24.702;2023-02-11T01:14:37;19.05;;;8.25;;
70576;SDS011;58138;43.138;24.702;2023-02-11T01:17:03;34.83;;;17.00;;
70576;SDS011;58138;43.138;24.702;2023-02-11T01:19:30;32.40;;;15.18;;
70576;SDS011;58138;43.138;24.702;2023-02-11T01:21:56;38.08;;;15.25;;
70576;SDS011;58138;43.138;24.702;2023-02-11T01:24:22;33.72;;;16.75;;
70576;SDS011;58138;43.138;24.702;2023-02-11T01:26:48;32.63;;;12.70;;
70576;SDS011;58138;43.138;24.702;2023-02-11T01:29:13;42.88;;;17.10;;
70576;SDS011;58138;43.138;24.702;2023-02-11T01:31:39;25.75;;;12.13;;
70576;SDS011;58138;43.138;24.702;2023-02-11T01:34:05;42.08;;;17.25;;
70576;SDS011;58138;43.138;24.702;2023-02-11T01:36:30;18.95;;;8.45;;
70576;SDS011;58138;43.138;24.702;2023-02-11T01:38:56;25.30;;;11.90;;
70576;SDS011;58138;43.138;24.702;2023-02-11T01:41:22;14.07;;;7.53;;
70576;SDS011;58138;43.138;24.702;2023-02-11T01:43:49;24.33;;;11.15;;
70576;SDS011;58138;43.138;24.702;2023-02-11T01:46:34;21.55;;;9.30;;
70576;SDS011;58138;43.138;24.702;2023-02-11T01:49:11;19.17;;;7.47;;
70576;SDS011;58138;43.138;24.702;2023-02-11T01:51:49;14.40;;;5.32;;
70576;SDS011;58138;43.138;24.702;2023-02-11T01:54:19;25.25;;;12.70;;
70576;SDS011;58138;43.138;24.702;2023-02-11T01:57:07;24.20;;;11.35;;
70576;SDS011;58138;43.138;24.702;2023-02-11T02:02:35;19.55;;;9.50;;
70576;SDS011;58138;43.138;24.702;2023-02-11T02:10:40;17.63;;;7.45;;
70576;SDS011;58138;43.138;24.702;2023-02-11T02:13:11;15.20;;;7.00;;
70576;SDS011;58138;43.138;24.702;2023-02-11T02:15:39;24.10;;;11.18;;
70576;SDS011;58138;43.138;24.702;2023-02-11T02:18:09;20.23;;;8.50;;
70576;SDS011;58138;43.138;24.702;2023-02-11T02:23:34;13.82;;;7.63;;
70576;SDS011;58138;43.138;24.702;2023-02-11T02:40:47;24.98;;;11.15;;
70576;SDS011;58138;43.138;24.702;2023-02-11T02:43:15;9.90;;;5.72;;
70576;SDS011;58138;43.138;24.702;2023-02-11T02:45:41;21.13;;;9.70;;
70576;SDS011;58138;43.138;24.702;2023-02-11T02:48:21;26.25;;;10.20;;
70576;SDS011;58138;43.138;24.702;2023-02-11T02:59:40;27.38;;;10.20;;
70576;SDS011;58138;43.138;24.702;2023-02-11T03:02:23;18.17;;;8.75;;
70576;SDS011;58138;43.138;24.702;2023-02-11T03:04:51;10.88;;;5.20;;
70576;SDS011;58138;43.138;24.702;2023-02-11T03:10:33;16.40;;;8.82;;
70576;SDS011;58138;43.138;24.702;2023-02-11T03:13:03;17.65;;;7.65;;
70576;SDS011;58138;43.138;24.702;2023-02-11T03:15:31;19.75;;;9.32;;
70576;SDS011;58138;43.138;24.702;2023-02-11T03:17:59;30.63;;;13.48;;
70576;SDS011;58138;43.138;24.702;2023-02-11T03:20:30;14.50;;;7.15;;
70576;SDS011;58138;43.138;24.702;2023-02-11T03:23:04;25.25;;;10.63;;
70576;SDS011;58138;43.138;24.702;2023-02-11T03:25:43;17.52;;;7.85;;
70576;SDS011;58138;43.138;24.702;2023-02-11T03:28:17;17.50;;;8.73;;
70576;SDS011;58138;43.138;24.702;2023-02-11T03:30:55;15.48;;;6.85;;
70576;SDS011;58138;43.138;24.702;2023-02-11T03:33:34;20.63;;;8.93;;
70576;SDS011;58138;43.138;24.702;2023-02-11T03:37:08;17.08;;;8.45;;
70576;SDS011;58138;43.138;24.702;2023-02-11T03:39:15;20.53;;;8.67;;
70576;SDS011;58138;43.138;24.702;2023-02-11T03:41:44;28.83;;;11.48;;
70576;SDS011;58138;43.138;24.702;2023-02-11T03:44:14;19.42;;;8.05;;
70576;SDS011;58138;43.138;24.702;2023-02-11T03:46:41;28.85;;;12.93;;
70576;SDS011;58138;43.138;24.702;2023-02-11T03:49:11;9.57;;;5.88;;
70576;SDS011;58138;43.138;24.702;2023-02-11T03:51:40;21.05;;;8.07;;
70576;SDS011;58138;43.138;24.702;2023-02-11T03:54:08;17.80;;;7.13;;
70576;SDS011;58138;43.138;24.702;2023-02-11T03:56:38;18.60;;;7.28;;
70576;SDS011;58138;43.138;24.702;2023-02-11T03:59:10;23.92;;;9.68;;
70576;SDS011;58138;43.138;24.702;2023-02-11T04:01:36;22.38;;;9.73;;
70576;SDS011;58138;43.138;24.702;2023-02-11T04:04:02;22.00;;;8.90;;
70576;SDS011;58138;43.138;24.702;2023-02-11T04:06:29;14.38;;;6.78;;
70576;SDS011;58138;43.138;24.702;2023-02-11T04:08:54;19.05;;;8.07;;
70576;SDS011;58138;43.138;24.702;2023-02-11T04:11:22;16.73;;;8.05;;
70576;SDS011;58138;43.138;24.702;2023-02-11T04:13:51;14.55;;;7.55;;
70576;SDS011;58138;43.138;24.702;2023-02-11T04:16:17;22.02;;;9.45;;
70576;SDS011;58138;43.138;24.702;2023-02-11T04:18:43;10.40;;;6.13;;
70576;SDS011;58138;43.138;24.702;2023-02-11T04:21:09;25.30;;;10.27;;
70576;SDS011;58138;43.138;24.702;2023-02-11T04:23:35;9.07;;;5.25;;
70576;SDS011;58138;43.138;24.702;2023-02-11T04:26:01;17.17;;;6.05;;
70576;SDS011;58138;43.138;24.702;2023-02-11T04:28:27;23.15;;;10.15;;
70576;SDS011;58138;43.138;24.702;2023-02-11T04:30:55;20.08;;;7.75;;
70576;SDS011;58138;43.138;24.702;2023-02-11T04:33:22;9.57;;;5.20;;
70576;SDS011;58138;43.138;24.702;2023-02-11T04:35:49;15.05;;;6.78;;
70576;SDS011;58138;43.138;24.702;2023-02-11T04:38:18;11.07;;;5.75;;
70576;SDS011;58138;43.138;24.702;2023-02-11T04:40:43;23.73;;;10.27;;
70576;SDS011;58138;43.138;24.702;2023-02-11T04:43:09;16.27;;;6.05;;
70576;SDS011;58138;43.138;24.702;2023-02-11T04:45:35;15.23;;;7.38;;
70576;SDS011;58138;43.138;24.702;2023-02-11T04:48:04;28.95;;;9.55;;
70576;SDS011;58138;43.138;24.702;2023-02-11T04:50:29;17.35;;;8.38;;
70576;SDS011;58138;43.138;24.702;2023-02-11T04:52:55;18.63;;;9.20;;
70576;SDS011;58138;43.138;24.702;2023-02-11T04:55:22;15.98;;;7.35;;
70576;SDS011;58138;43.138;24.702;2023-02-11T04:57:48;12.48;;;6.45;;
70576;SDS011;58138;43.138;24.702;2023-02-11T05:00:13;15.18;;;8.80;;
70576;SDS011;58138;43.138;24.702;2023-02-11T05:02:40;29.58;;;14.70;;
70576;SDS011;58138;43.138;24.702;2023-02-11T05:05:06;12.00;;;6.72;;
70576;SDS011;58138;43.138;24.702;2023-02-11T05:07:32;24.02;;;9.63;;
70576;SDS011;58138;43.138;24.702;2023-02-11T05:09:57;14.45;;;7.43;;
70576;SDS011;58138;43.138;24.702;2023-02-11T05:12:23;15.93;;;8.15;;
70576;SDS011;58138;43.138;24.702;2023-02-11T05:14:49;13.90;;;6.97;;
70576;SDS011;58138;43.138;24.702;2023-02-11T05:17:17;15.05;;;7.75;;
70576;SDS011;58138;43.138;24.702;2023-02-11T05:19:45;18.77;;;8.93;;
70576;SDS011;58138;43.138;24.702;2023-02-11T05:22:11;15.95;;;7.43;;
70576;SDS011;58138;43.138;24.702;2023-02-11T05:24:36;18.13;;;9.18;;
70576;SDS011;58138;43.138;24.702;2023-02-11T05:27:05;19.95;;;8.60;;
70576;SDS011;58138;43.138;24.702;2023-02-11T05:29:31;30.35;;;11.77;;
70576;SDS011;58138;43.138;24.702;2023-02-11T05:31:57;26.50;;;11.70;;
70576;SDS011;58138;43.138;24.702;2023-02-11T05:34:26;24.05;;;9.18;;
70576;SDS011;58138;43.138;24.702;2023-02-11T05:36:51;48.30;;;23.17;;
70576;SDS011;58138;43.138;24.702;2023-02-11T05:39:17;20.70;;;10.82;;
70576;SDS011;58138;43.138;24.702;2023-02-11T05:41:43;22.05;;;10.85;;
70576;SDS011;58138;43.138;24.702;2023-02-11T05:44:09;55.95;;;23.85;;
70576;SDS011;58138;43.138;24.702;2023-02-11T05:46:35;39.45;;;16.55;;
70576;SDS011;58138;43.138;24.702;2023-02-11T05:49:03;40.67;;;18.63;;
70576;SDS011;58138;43.138;24.702;2023-02-11T05:51:31;43.70;;;20.27;;
70576;SDS011;58138;43.138;24.702;2023-02-11T05:53:58;31.83;;;11.90;;
70576;SDS011;58138;43.138;24.702;2023-02-11T05:56:24;26.45;;;11.57;;
70576;SDS011;58138;43.138;24.702;2023-02-11T05:58:50;37.97;;;15.32;;
70576;SDS011;58138;43.138;24.702;2023-02-11T06:01:16;19.88;;;9.60;;
70576;SDS011;58138;43.138;24.702;2023-02-11T06:03:43;17.55;;;7.20;;
70576;SDS011;58138;43.138;24.702;2023-02-11T06:06:10;26.00;;;10.77;;
70576;SDS011;58138;43.138;24.702;2023-02-11T06:08:36;23.38;;;10.40;;
70576;SDS011;58138;43.138;24.702;2023-02-11T06:11:04;21.20;;;7.80;;
70576;SDS011;58138;43.138;24.702;2023-02-11T06:13:29;28.92;;;13.40;;
70576;SDS011;58138;43.138;24.702;2023-02-11T06:15:55;23.70;;;10.60;;
70576;SDS011;58138;43.138;24.702;2023-02-11T06:18:24;25.73;;;9.52;;
70576;SDS011;58138;43.138;24.702;2023-02-11T06:20:50;27.60;;;11.00;;
70576;SDS011;58138;43.138;24.702;2023-02-11T06:23:16;30.35;;;11.18;;
70576;SDS011;58138;43.138;24.702;2023-02-11T06:25:42;21.08;;;7.05;;
70576;SDS011;58138;43.138;24.702;2023-02-11T06:28:08;22.50;;;9.43;;
70576;SDS011;58138;43.138;24.702;2023-02-11T06:30:35;15.20;;;6.40;;
70576;SDS011;58138;43.138;24.702;2023-02-11T06:33:01;14.73;;;6.55;;
70576;SDS011;58138;43.138;24.702;2023-02-11T06:35:27;24.95;;;10.52;;
70576;SDS011;58138;43.138;24.702;2023-02-11T06:37:58;23.33;;;9.65;;
70576;SDS011;58138;43.138;24.702;2023-02-11T06:40:23;25.90;;;10.63;;
70576;SDS011;58138;43.138;24.702;2023-02-11T06:42:49;12.38;;;5.72;;
70576;SDS011;58138;43.138;24.702;2023-02-11T06:45:19;24.05;;;9.80;;
70576;SDS011;58138;43.138;24.702;2023-02-11T06:47:45;18.90;;;7.93;;
70576;SDS011;58138;43.138;24.702;2023-02-11T06:50:12;35.17;;;15.15;;
70576;SDS011;58138;43.138;24.702;2023-02-11T06:52:41;15.65;;;7.75;;
70576;SDS011;58138;43.138;24.702;2023-02-11T06:55:07;18.35;;;7.80;;
70576;SDS011;58138;43.138;24.702;2023-02-11T06:57:34;30.50;;;11.88;;
70576;SDS011;58138;43.138;24.702;2023-02-11T07:00:00;16.98;;;8.85;;
70576;SDS011;58138;43.138;24.702;2023-02-11T07:02:26;39.55;;;14.63;;
70576;SDS011;58138;43.138;24.702;2023-02-11T07:04:54;22.33;;;7.85;;
70576;SDS011;58138;43.138;24.702;2023-02-11T07:07:22;28.23;;;9.27;;
70576;SDS011;58138;43.138;24.702;2023-02-11T07:09:52;26.50;;;10.98;;
70576;SDS011;58138;43.138;24.702;2023-02-11T07:12:18;34.72;;;15.45;;
70576;SDS011;58138;43.138;24.702;2023-02-11T07:14:44;32.83;;;14.30;;
70576;SDS011;58138;43.138;24.702;2023-02-11T07:17:11;39.28;;;19.50;;
70576;SDS011;58138;43.138;24.702;2023-02-11T07:19:37;25.70;;;12.52;;
70576;SDS011;58138;43.138;24.702;2023-02-11T07:22:03;49.67;;;23.15;;
70576;SDS011;58138;43.138;24.702;2023-02-11T07:24:29;26.35;;;11.95;;
70576;SDS011;58138;43.138;24.702;2023-02-11T07:26:55;26.42;;;11.48;;
70576;SDS011;58138;43.138;24.702;2023-02-11T07:29:20;40.13;;;15.82;;
70576;SDS011;58138;43.138;24.702;2023-02-11T07:31:46;25.60;;;10.77;;
70576;SDS011;58138;43.138;24.702;2023-02-11T07:34:12;13.85;;;7.30;;
70576;SDS011;58138;43.138;24.702;2023-02-11T07:36:38;17.38;;;8.88;;
70576;SDS011;58138;43.138;24.702;2023-02-11T07:39:09;15.52;;;8.25;;
70576;SDS011;58138;43.138;24.702;2023-02-11T07:41:37;10.55;;;5.63;;
70576;SDS011;58138;43.138;24.702;2023-02-11T07:44:04;21.50;;;11.75;;
70576;SDS011;58138;43.138;24.702;2023-02-11T07:46:31;13.77;;;6.75;;
70576;SDS011;58138;43.138;24.702;2023-02-11T07:49:00;27.60;;;11.90;;
70576;SDS011;58138;43.138;24.702;2023-02-11T07:51:27;30.38;;;12.77;;
70576;SDS011;58138;43.138;24.702;2023-02-11T07:53:54;28.77;;;15.05;;
70576;SDS011;58138;43.138;24.702;2023-02-11T07:56:23;30.65;;;16.13;;
70576;SDS011;58138;43.138;24.702;2023-02-11T07:58:50;31.90;;;16.02;;
70576;SDS011;58138;43.138;24.702;2023-02-11T08:01:18;28.45;;;14.15;;
70576;SDS011;58138;43.138;24.702;2023-02-11T08:03:49;31.52;;;15.27;;
70576;SDS011;58138;43.138;24.702;2023-02-11T08:06:17;33.70;;;16.60;;
70576;SDS011;58138;43.138;24.702;2023-02-11T08:08:44;25.23;;;13.45;;
70576;SDS011;58138;43.138;24.702;2023-02-11T08:11:12;34.95;;;19.33;;
70576;SDS011;58138;43.138;24.702;2023-02-11T08:13:42;35.20;;;17.70;;
70576;SDS011;58138;43.138;24.702;2023-02-11T08:16:09;33.22;;;16.73;;
70576;SDS011;58138;43.138;24.702;2023-02-11T08:18:52;44.00;;;19.42;;
70576;SDS011;58138;43.138;24.702;2023-02-11T08:21:20;50.38;;;20.02;;
70576;SDS011;58138;43.138;24.702;2023-02-11T08:23:48;52.47;;;23.23;;
70576;SDS011;58138;43.138;24.702;2023-02-11T08:26:22;32.88;;;18.60;;
70576;SDS011;58138;43.138;24.702;2023-02-11T08:28:52;35.15;;;18.15;;
70576;SDS011;58138;43.138;24.702;2023-02-11T08:31:24;31.05;;;16.15;;
70576;SDS011;58138;43.138;24.702;2023-02-11T08:33:52;30.30;;;16.90;;
70576;SDS011;58138;43.138;24.702;2023-02-11T08:36:20;32.08;;;16.90;;
70576;SDS011;58138;43.138;24.702;2023-02-11T08:38:47;30.80;;;17.15;;
70576;SDS011;58138;43.138;24.702;2023-02-11T08:41:14;30.83;;;14.68;;
70576;SDS011;58138;43.138;24.702;2023-02-11T08:43:42;39.85;;;20.45;;
70576;SDS011;58138;43.138;24.702;2023-02-11T08:46:09;41.30;;;21.25;;
70576;SDS011;58138;43.138;24.702;2023-02-11T08:48:38;35.47;;;19.08;;
70576;SDS011;58138;43.138;24.702;2023-02-11T08:51:08;37.20;;;21.33;;
70576;SDS011;58138;43.138;24.702;2023-02-11T08:53:37;40.20;;;23.63;;
70576;SDS011;58138;43.138;24.702;2023-02-11T08:56:03;30.73;;;17.27;;
70576;SDS011;58138;43.138;24.702;2023-02-11T08:58:31;34.88;;;18.40;;
70576;SDS011;58138;43.138;24.702;2023-02-11T09:00:58;30.20;;;15.10;;
70576;SDS011;58138;43.138;24.702;2023-02-11T09:03:24;47.55;;;27.35;;
70576;SDS011;58138;43.138;24.702;2023-02-11T09:05:54;29.73;;;16.85;;
70576;SDS011;58138;43.138;24.702;2023-02-11T09:08:21;64.03;;;18.38;;
70576;SDS011;58138;43.138;24.702;2023-02-11T09:10:47;36.03;;;18.48;;
70576;SDS011;58138;43.138;24.702;2023-02-11T09:13:13;33.00;;;17.60;;
70576;SDS011;58138;43.138;24.702;2023-02-11T09:15:38;54.08;;;31.55;;
70576;SDS011;58138;43.138;24.702;2023-02-11T09:18:04;35.58;;;20.30;;
70576;SDS011;58138;43.138;24.702;2023-02-11T09:20:31;43.08;;;24.05;;
70576;SDS011;58138;43.138;24.702;2023-02-11T09:22:58;35.80;;;22.33;;
70576;SDS011;58138;43.138;24.702;2023-02-11T09:25:24;37.35;;;23.63;;
70576;SDS011;58138;43.138;24.702;2023-02-11T09:27:51;44.33;;;26.48;;
70576;SDS011;58138;43.138;24.702;2023-02-11T09:30:17;51.13;;;30.40;;
70576;SDS011;58138;43.138;24.702;2023-02-11T09:32:43;51.78;;;30.02;;
70576;SDS011;58138;43.138;24.702;2023-02-11T09:35:09;44.00;;;24.63;;
70576;SDS011;58138;43.138;24.702;2023-02-11T09:37:35;39.92;;;25.30;;
70576;SDS011;58138;43.138;24.702;2023-02-11T09:40:02;30.83;;;16.25;;
70576;SDS011;58138;43.138;24.702;2023-02-11T09:45:16;29.40;;;15.38;;
70576;SDS011;58138;43.138;24.702;2023-02-11T09:47:54;17.95;;;10.60;;
70576;SDS011;58138;43.138;24.702;2023-02-11T09:51:04;15.65;;;9.40;;
70576;SDS011;58138;43.138;24.702;2023-02-11T09:54:50;16.30;;;8.80;;
70576;SDS011;58138;43.138;24.702;2023-02-11T09:57:19;12.00;;;7.88;;
70576;SDS011;58138;43.138;24.702;2023-02-11T09:59:46;19.02;;;12.45;;
70576;SDS011;58138;43.138;24.702;2023-02-11T10:02:24;37.97;;;24.45;;
70576;SDS011;58138;43.138;24.702;2023-02-11T10:05:06;16.05;;;11.00;;
70576;SDS011;58138;43.138;24.702;2023-02-11T10:07:45;19.58;;;12.90;;
70576;SDS011;58138;43.138;24.702;2023-02-11T10:10:30;30.08;;;21.25;;
70576;SDS011;58138;43.138;24.702;2023-02-11T10:21:35;21.17;;;13.52;;
70576;SDS011;58138;43.138;24.702;2023-02-11T10:24:29;17.48;;;11.23;;
70576;SDS011;58138;43.138;24.702;2023-02-11T10:26:55;17.00;;;11.88;;
70576;SDS011;58138;43.138;24.702;2023-02-11T10:31:55;18.88;;;12.07;;
70576;SDS011;58138;43.138;24.702;2023-02-11T10:34:21;18.88;;;9.95;;
70576;SDS011;58138;43.138;24.702;2023-02-11T10:36:47;26.77;;;17.77;;
70576;SDS011;58138;43.138;24.702;2023-02-11T10:39:15;23.98;;;13.52;;
70576;SDS011;58138;43.138;24.702;2023-02-11T10:41:44;14.00;;;8.63;;
70576;SDS011;58138;43.138;24.702;2023-02-11T10:44:31;15.20;;;9.35;;
70576;SDS011;58138;43.138;24.702;2023-02-11T10:47:00;14.48;;;9.65;;
70576;SDS011;58138;43.138;24.702;2023-02-11T10:49:33;25.08;;;17.00;;
70576;SDS011;58138;43.138;24.702;2023-02-11T10:54:36;17.17;;;10.60;;
70576;SDS011;58138;43.138;24.702;2023-02-11T10:57:05;16.45;;;10.88;;
70576;SDS011;58138;43.138;24.702;2023-02-11T10:59:33;14.55;;;9.85;;
70576;SDS011;58138;43.138;24.702;2023-02-11T11:02:50;21.67;;;14.23;;
70576;SDS011;58138;43.138;24.702;2023-02-11T11:05:15;17.88;;;11.40;;
70576;SDS011;58138;43.138;24.702;2023-02-11T11:07:53;14.85;;;10.70;;
70576;SDS011;58138;43.138;24.702;2023-02-11T11:10:28;13.43;;;9.70;;
70576;SDS011;58138;43.138;24.702;2023-02-11T11:13:00;19.65;;;11.93;;
70576;SDS011;58138;43.138;24.702;2023-02-11T11:15:26;20.05;;;10.25;;
70576;SDS011;58138;43.138;24.702;2023-02-11T11:18:14;14.32;;;9.02;;
70576;SDS011;58138;43.138;24.702;2023-02-11T11:20:58;16.17;;;11.15;;
70576;SDS011;58138;43.138;24.702;2023-02-11T11:23:25;17.20;;;10.80;;
70576;SDS011;58138;43.138;24.702;2023-02-11T11:26:00;18.00;;;9.10;;
70576;SDS011;58138;43.138;24.702;2023-02-11T11:28:30;19.85;;;9.93;;
70576;SDS011;58138;43.138;24.702;2023-02-11T11:31:12;13.80;;;9.65;;
70576;SDS011;58138;43.138;24.702;2023-02-11T11:33:40;12.32;;;8.20;;
70576;SDS011;58138;43.138;24.702;2023-02-11T11:36:09;13.20;;;9.63;;
70576;SDS011;58138;43.138;24.702;2023-02-11T11:38:42;14.52;;;11.40;;
70576;SDS011;58138;43.138;24.702;2023-02-11T11:41:15;14.65;;;7.82;;
70576;SDS011;58138;43.138;24.702;2023-02-11T11:43:58;12.73;;;7.82;;
70576;SDS011;58138;43.138;24.702;2023-02-11T11:46:33;18.52;;;7.63;;
70576;SDS011;58138;43.138;24.702;2023-02-11T11:51:32;12.07;;;8.50;;
70576;SDS011;58138;43.138;24.702;2023-02-11T11:54:03;13.32;;;9.18;;
70576;SDS011;58138;43.138;24.702;2023-02-11T11:56:36;14.23;;;9.35;;
70576;SDS011;58138;43.138;24.702;2023-02-11T11:59:10;15.75;;;10.13;;
70576;SDS011;58138;43.138;24.702;2023-02-11T12:12:55;15.88;;;10.10;;
70576;SDS011;58138;43.138;24.702;2023-02-11T12:16:01;18.58;;;11.02;;
70576;SDS011;58138;43.138;24.702;2023-02-11T12:26:45;17.20;;;12.02;;
70576;SDS011;58138;43.138;24.702;2023-02-11T12:49:53;22.48;;;13.43;;
70576;SDS011;58138;43.138;24.702;2023-02-11T12:52:50;17.58;;;9.38;;
70576;SDS011;58138;43.138;24.702;2023-02-11T12:55:27;18.10;;;12.05;;
70576;SDS011;58138;43.138;24.702;2023-02-11T12:58:01;19.83;;;11.85;;
70576;SDS011;58138;43.138;24.702;2023-02-11T13:00:30;15.18;;;9.70;;
70576;SDS011;58138;43.138;24.702;2023-02-11T13:05:58;20.20;;;14.23;;
70576;SDS011;58138;43.138;24.702;2023-02-11T13:08:28;19.60;;;12.60;;
70576;SDS011;58138;43.138;24.702;2023-02-11T13:11:03;16.92;;;10.10;;
70576;SDS011;58138;43.138;24.702;2023-02-11T13:16:34;19.58;;;13.05;;
70576;SDS011;58138;43.138;24.702;2023-02-11T13:30:23;48.15;;;23.75;;
70576;SDS011;58138;43.138;24.702;2023-02-11T13:38:04;27.80;;;14.15;;
70576;SDS011;58138;43.138;24.702;2023-02-11T13:40:42;25.73;;;15.80;;
70576;SDS011;58138;43.138;24.702;2023-02-11T13:43:22;31.10;;;18.02;;
70576;SDS011;58138;43.138;24.702;2023-02-11T13:46:03;23.08;;;15.23;;
70576;SDS011;58138;43.138;24.702;2023-02-11T13:48:38;18.55;;;12.13;;
70576;SDS011;58138;43.138;24.702;2023-02-11T13:51:13;19.02;;;12.32;;
70576;SDS011;58138;43.138;24.702;2023-02-11T13:53:53;26.48;;;16.40;;
70576;SDS011;58138;43.138;24.702;2023-02-11T13:58:57;21.00;;;13.55;;
70576;SDS011;58138;43.138;24.702;2023-02-11T14:04:36;22.75;;;15.73;;
70576;SDS011;58138;43.138;24.702;2023-02-11T14:11:02;22.13;;;13.73;;
70576;SDS011;58138;43.138;24.702;2023-02-11T14:33:19;39.70;;;22.10;;
70576;SDS011;58138;43.138;24.702;2023-02-11T14:41:57;39.28;;;25.38;;
70576;SDS011;58138;43.138;24.702;2023-02-11T14:44:27;44.33;;;24.90;;
70576;SDS011;58138;43.138;24.702;2023-02-11T14:46:55;35.53;;;22.00;;
70576;SDS011;58138;43.138;24.702;2023-02-11T14:49:30;37.50;;;21.98;;
70576;SDS011;58138;43.138;24.702;2023-02-11T14:52:05;32.65;;;20.73;;
70576;SDS011;58138;43.138;24.702;2023-02-11T14:54:44;48.55;;;25.00;;
70576;SDS011;58138;43.138;24.702;2023-02-11T14:57:15;48.40;;;28.73;;
70576;SDS011;58138;43.138;24.702;2023-02-11T14:59:54;87.20;;;48.83;;
70576;SDS011;58138;43.138;24.702;2023-02-11T15:02:32;58.97;;;33.72;;
70576;SDS011;58138;43.138;24.702;2023-02-11T15:07:51;46.22;;;27.23;;
70576;SDS011;58138;43.138;24.702;2023-02-11T15:10:21;36.03;;;18.65;;
70576;SDS011;58138;43.138;24.702;2023-02-11T15:12:51;59.50;;;34.30;;
70576;SDS011;58138;43.138;24.702;2023-02-11T15:15:20;67.65;;;36.22;;
70576;SDS011;58138;43.138;24.702;2023-02-11T15:17:46;108.65;;;56.70;;
70576;SDS011;58138;43.138;24.702;2023-02-11T15:20:15;63.92;;;36.15;;
70576;SDS011;58138;43.138;24.702;2023-02-11T15:22:46;51.00;;;27.10;;
70576;SDS011;58138;43.138;24.702;2023-02-11T15:25:16;52.40;;;31.45;;
70576;SDS011;58138;43.138;24.702;2023-02-11T15:28:09;66.15;;;38.25;;
70576;SDS011;58138;43.138;24.702;2023-02-11T15:30:40;52.25;;;31.70;;
70576;SDS011;58138;43.138;24.702;2023-02-11T15:33:18;67.32;;;42.80;;
70576;SDS011;58138;43.138;24.702;2023-02-11T15:35:49;70.57;;;38.33;;
70576;SDS011;58138;43.138;24.702;2023-02-11T15:38:17;66.03;;;36.67;;
70576;SDS011;58138;43.138;24.702;2023-02-11T15:40:52;54.42;;;32.50;;
70576;SDS011;58138;43.138;24.702;2023-02-11T15:43:19;46.53;;;27.35;;
70576;SDS011;58138;43.138;24.702;2023-02-11T15:46:01;46.72;;;27.33;;
70576;SDS011;58138;43.138;24.702;2023-02-11T15:48:33;69.68;;;36.63;;
70576;SDS011;58138;43.138;24.702;2023-02-11T15:51:02;74.82;;;41.80;;
70576;SDS011;58138;43.138;24.702;2023-02-11T15:53:37;82.47;;;44.03;;
70576;SDS011;58138;43.138;24.702;2023-02-11T15:59:13;54.88;;;29.00;;
70576;SDS011;58138;43.138;24.702;2023-02-11T16:01:43;50.58;;;28.73;;
70576;SDS011;58138;43.138;24.702;2023-02-11T16:04:23;47.80;;;26.98;;
70576;SDS011;58138;43.138;24.702;2023-02-11T16:06:50;52.65;;;27.98;;
70576;SDS011;58138;43.138;24.702;2023-02-11T16:09:22;45.78;;;25.73;;
70576;SDS011;58138;43.138;24.702;2023-02-11T16:19:26;65.78;;;34.55;;
70576;SDS011;58138;43.138;24.702;2023-02-11T16:21:53;64.55;;;32.60;;
70576;SDS011;58138;43.138;24.702;2023-02-11T16:24:26;57.15;;;30.40;;
70576;SDS011;58138;43.138;24.702;2023-02-11T16:27:01;52.63;;;29.17;;
70576;SDS011;58138;43.138;24.702;2023-02-11T16:29:32;50.53;;;23.77;;
70576;SDS011;58138;43.138;24.702;2023-02-11T16:32:08;52.03;;;25.65;;
70576;SDS011;58138;43.138;24.702;2023-02-11T16:34:40;46.75;;;24.88;;
70576;SDS011;58138;43.138;24.702;2023-02-11T16:37:05;48.85;;;23.70;;
70576;SDS011;58138;43.138;24.702;2023-02-11T16:39:32;48.92;;;28.60;;
70576;SDS011;58138;43.138;24.702;2023-02-11T16:42:01;55.35;;;29.35;;
70576;SDS011;58138;43.138;24.702;2023-02-11T16:44:32;68.57;;;35.03;;
70576;SDS011;58138;43.138;24.702;2023-02-11T16:46:59;72.00;;;37.92;;
70576;SDS011;58138;43.138;24.702;2023-02-11T16:49:45;94.45;;;49.53;;
70576;SDS011;58138;43.138;24.702;2023-02-11T16:52:12;81.10;;;44.65;;
70576;SDS011;58138;43.138;24.702;2023-02-11T16:54:39;84.30;;;43.03;;
70576;SDS011;58138;43.138;24.702;2023-02-11T16:57:19;76.82;;;40.45;;
70576;SDS011;58138;43.138;24.702;2023-02-11T16:59:47;84.93;;;46.42;;
70576;SDS011;58138;43.138;24.702;2023-02-11T17:02:17;65.97;;;37.10;;
70576;SDS011;58138;43.138;24.702;2023-02-11T17:04:47;81.68;;;42.78;;
70576;SDS011;58138;43.138;24.702;2023-02-11T17:07:13;81.25;;;45.97;;
70576;SDS011;58138;43.138;24.702;2023-02-11T17:09:43;81.95;;;46.38;;
70576;SDS011;58138;43.138;24.702;2023-02-11T17:12:09;122.32;;;59.03;;
70576;SDS011;58138;43.138;24.702;2023-02-11T17:14:37;95.90;;;50.97;;
70576;SDS011;58138;43.138;24.702;2023-02-11T17:17:03;109.95;;;53.63;;
70576;SDS011;58138;43.138;24.702;2023-02-11T17:19:28;105.32;;;54.80;;